Time;durP1;ratioP1;P1;durP2;ratioP2;P2;SDS_P1;SDS_P2;PMS_P1;PMS_P2;Temp;Humidity;BMP_temperature;BMP_pressure;BME280_temperature;BME280_humidity;BME280_pressure;Samples;Min_cycle;Max_cycle;Signal;HPM_P1;HPM_P2
2022/05/07 00:00:36;;;;;;;26.77;19.63;;;10.20;99.90;;;;;;5050321;28;20075;-69
2022/05/07 00:03:02;;;;;;;29.33;20.98;;;10.20;99.90;;;;;;5013738;28;20640;-67
2022/05/07 00:05:28;;;;;;;25.83;19.75;;;10.20;99.90;;;;;;5029810;28;20060;-71
2022/05/07 00:07:53;;;;;;;32.33;21.17;;;10.20;99.90;;;;;;5032047;28;20041;-59
2022/05/07 00:10:19;;;;;;;27.13;18.65;;;10.20;99.90;;;;;;5030529;28;20056;-68
2022/05/07 00:12:45;;;;;;;30.02;17.88;;;10.20;99.90;;;;;;5031124;28;20084;-61
2022/05/07 00:15:11;;;;;;;30.73;19.55;;;10.10;99.90;;;;;;5030749;28;20045;-67
2022/05/07 00:20:21;;;;;;;31.08;20.33;;;10.10;99.90;;;;;;5037544;28;20060;-61
2022/05/07 00:22:47;;;;;;;30.15;20.40;;;10.10;99.90;;;;;;5049630;28;20056;-66
2022/05/07 00:25:13;;;;;;;29.98;21.20;;;10.10;99.90;;;;;;5034910;28;20048;-64
2022/05/07 00:27:39;;;;;;;30.88;20.83;;;10.10;99.90;;;;;;5048133;28;20486;-60
2022/05/07 00:30:05;;;;;;;34.22;21.02;;;10.10;99.90;;;;;;5050808;28;20436;-62
2022/05/07 00:32:31;;;;;;;30.00;20.25;;;10.20;99.90;;;;;;5035875;28;20087;-59
2022/05/07 00:34:57;;;;;;;26.52;19.52;;;10.20;99.90;;;;;;5030690;28;20045;-63
2022/05/07 00:37:23;;;;;;;31.85;19.20;;;10.20;99.90;;;;;;5032077;28;20137;-63
2022/05/07 00:39:49;;;;;;;28.80;19.55;;;10.20;99.90;;;;;;5013466;28;20064;-66
2022/05/07 00:42:15;;;;;;;26.23;18.85;;;10.20;99.90;;;;;;5031218;28;20056;-66
2022/05/07 00:44:41;;;;;;;28.83;18.38;;;10.20;99.90;;;;;;5030175;28;20391;-67
2022/05/07 00:47:30;;;;;;;24.38;18.73;;;10.20;99.90;;;;;;5032393;28;20037;-64
2022/05/07 00:51:33;;;;;;;25.88;18.88;;;10.20;99.90;;;;;;5050393;28;20410;-65
2022/05/07 00:52:43;;;;;;;28.02;18.67;;;10.20;99.90;;;;;;5049649;28;20091;-62
2022/05/07 00:55:11;;;;;;;27.42;20.58;;;10.20;99.90;;;;;;5050957;28;20041;-59
2022/05/07 00:57:37;;;;;;;29.50;19.75;;;10.10;99.90;;;;;;5031059;28;20055;-60
2022/05/07 01:00:04;;;;;;;32.42;20.88;;;10.10;99.90;;;;;;5050475;28;20052;-60
2022/05/07 01:02:30;;;;;;;28.52;20.58;;;10.10;99.90;;;;;;5034869;28;20048;-61
2022/05/07 01:04:57;;;;;;;27.60;20.60;;;10.10;99.90;;;;;;5013502;28;20057;-65
2022/05/07 01:07:23;;;;;;;28.98;20.30;;;10.10;99.90;;;;;;5030920;28;20132;-59
2022/05/07 01:09:49;;;;;;;32.58;21.38;;;10.10;99.90;;;;;;5029140;28;20147;-63
2022/05/07 01:12:15;;;;;;;33.90;21.52;;;10.10;99.90;;;;;;5031409;28;20040;-66
2022/05/07 01:14:41;;;;;;;27.92;20.10;;;10.10;99.90;;;;;;5027038;28;20059;-63
2022/05/07 01:17:07;;;;;;;29.83;20.48;;;10.00;99.90;;;;;;5013123;28;20131;-63
2022/05/07 01:19:33;;;;;;;32.22;20.75;;;10.00;99.90;;;;;;5029586;28;20501;-62
2022/05/07 01:21:59;;;;;;;28.48;19.02;;;9.90;99.90;;;;;;5028405;28;20057;-66
2022/05/07 01:24:25;;;;;;;27.70;20.00;;;9.80;99.90;;;;;;5028615;28;20043;-59
2022/05/07 01:26:51;;;;;;;30.63;20.75;;;9.80;99.90;;;;;;5045180;28;20067;-64
2022/05/07 01:29:16;;;;;;;32.08;20.05;;;9.80;99.90;;;;;;5030408;28;20616;-62
2022/05/07 01:31:42;;;;;;;29.77;20.63;;;9.90;99.90;;;;;;5028201;28;20045;-63
2022/05/07 01:34:08;;;;;;;36.83;23.42;;;9.90;99.90;;;;;;5012786;28;20052;-67
2022/05/07 01:36:33;;;;;;;40.28;23.95;;;9.90;99.90;;;;;;5044743;28;20158;-62
2022/05/07 01:38:59;;;;;;;39.33;25.67;;;9.90;99.90;;;;;;5047736;28;20585;-62
2022/05/07 01:41:25;;;;;;;35.67;23.17;;;9.90;99.90;;;;;;5046828;28;20118;-63
2022/05/07 01:43:50;;;;;;;35.88;23.48;;;10.00;99.90;;;;;;5046414;28;20045;-63
2022/05/07 01:49:01;;;;;;;32.53;22.33;;;10.10;99.90;;;;;;5057403;28;20049;-62
2022/05/07 01:51:26;;;;;;;32.67;22.17;;;10.10;99.90;;;;;;5050228;28;20052;-61
2022/05/07 01:53:52;;;;;;;32.50;20.90;;;10.10;99.90;;;;;;5031741;28;20474;-67
2022/05/07 01:56:17;;;;;;;31.45;21.27;;;10.20;99.90;;;;;;5016647;28;20048;-59
2022/05/07 01:58:45;;;;;;;41.50;20.85;;;10.20;99.90;;;;;;5024543;28;20067;-59
2022/05/07 02:01:17;;;;;;;33.08;21.48;;;10.20;99.90;;;;;;5024284;28;20589;-63
2022/05/07 02:03:42;;;;;;;31.50;22.35;;;10.20;99.90;;;;;;5043201;28;20057;-59
2022/05/07 02:06:08;;;;;;;34.33;20.92;;;10.20;99.90;;;;;;5041350;28;20403;-64
2022/05/07 02:08:34;;;;;;;34.92;23.35;;;10.20;99.90;;;;;;5028659;28;20061;-63
2022/05/07 02:11:01;;;;;;;36.10;24.42;;;10.20;99.90;;;;;;5011829;28;20475;-68
2022/05/07 02:13:28;;;;;;;35.75;24.65;;;10.20;99.90;;;;;;5029477;28;20254;-66
2022/05/07 02:15:54;;;;;;;34.67;24.50;;;10.30;99.90;;;;;;5028534;28;20418;-59
2022/05/07 02:18:19;;;;;;;43.15;25.88;;;10.30;99.90;;;;;;5028896;28;20053;-63
2022/05/07 02:20:46;;;;;;;41.28;26.08;;;10.30;99.90;;;;;;5028749;28;20056;-70
2022/05/07 02:23:11;;;;;;;40.15;25.60;;;10.40;99.90;;;;;;5028316;28;20049;-64
2022/05/07 02:25:37;;;;;;;41.15;25.45;;;10.40;99.90;;;;;;5013279;28;20403;-59
2022/05/07 02:28:06;;;;;;;42.00;26.42;;;10.50;99.90;;;;;;5027524;28;20633;-67
2022/05/07 02:30:32;;;;;;;42.37;26.10;;;10.50;99.90;;;;;;5028779;28;20052;-64
2022/05/07 02:32:58;;;;;;;40.67;26.23;;;10.60;99.90;;;;;;4993423;28;20053;-66
2022/05/07 02:35:25;;;;;;;38.83;26.08;;;10.70;99.90;;;;;;5025717;28;20459;-63
2022/05/07 02:37:51;;;;;;;36.15;23.25;;;10.70;99.90;;;;;;5024828;28;20076;-60
2022/05/07 02:40:16;;;;;;;45.83;24.90;;;10.70;99.90;;;;;;5042006;28;20075;-64
2022/05/07 02:42:44;;;;;;;41.03;24.05;;;10.70;99.90;;;;;;5025721;28;20049;-60
2022/05/07 02:45:13;;;;;;;39.08;23.55;;;10.70;99.90;;;;;;4991882;28;20049;-59
2022/05/07 02:47:41;;;;;;;40.95;24.13;;;10.80;99.90;;;;;;5009424;28;20060;-61
2022/05/07 02:50:09;;;;;;;41.67;23.88;;;10.80;99.90;;;;;;5006923;28;20104;-66
2022/05/07 02:52:35;;;;;;;42.80;25.88;;;10.80;99.90;;;;;;5008828;28;20091;-67
2022/05/07 02:55:06;;;;;;;31.55;21.85;;;10.80;99.90;;;;;;5027627;28;20434;-68
2022/05/07 02:57:33;;;;;;;33.92;22.30;;;10.80;99.90;;;;;;5028610;28;20060;-64
2022/05/07 02:59:58;;;;;;;34.17;22.58;;;10.80;99.90;;;;;;5028396;28;20061;-59
2022/05/07 03:02:24;;;;;;;35.65;21.55;;;10.70;99.90;;;;;;5008500;28;20075;-60
2022/05/07 03:04:51;;;;;;;35.55;22.67;;;10.80;99.90;;;;;;5028666;28;20487;-69
2022/05/07 03:07:17;;;;;;;34.03;23.83;;;10.70;99.90;;;;;;5027074;28;20411;-68
2022/05/07 03:09:43;;;;;;;40.55;23.60;;;10.80;99.90;;;;;;5028801;28;20136;-65
2022/05/07 03:12:09;;;;;;;40.45;25.30;;;10.80;99.90;;;;;;5030425;28;20135;-65
2022/05/07 03:14:36;;;;;;;36.25;24.05;;;10.80;99.90;;;;;;5032657;28;20060;-60
2022/05/07 03:17:02;;;;;;;34.50;23.50;;;10.70;99.90;;;;;;5050165;28;20099;-70
2022/05/07 03:19:28;;;;;;;31.73;22.73;;;10.80;99.90;;;;;;5049823;28;20041;-63
2022/05/07 03:21:54;;;;;;;37.13;24.52;;;10.80;99.90;;;;;;5016476;28;20060;-60
2022/05/07 03:24:20;;;;;;;43.53;24.10;;;10.80;99.90;;;;;;5048705;28;20094;-67
2022/05/07 03:26:46;;;;;;;40.05;25.15;;;10.90;99.90;;;;;;5032814;28;20096;-58
2022/05/07 03:29:12;;;;;;;36.80;23.95;;;10.90;99.90;;;;;;5014791;28;20118;-62
2022/05/07 03:31:39;;;;;;;40.45;26.17;;;10.90;99.90;;;;;;5025287;28;20578;-61
2022/05/07 03:34:05;;;;;;;41.10;24.85;;;10.90;99.90;;;;;;5044912;28;20098;-63
2022/05/07 03:36:31;;;;;;;40.10;24.58;;;10.90;99.90;;;;;;5032036;28;20049;-58
2022/05/07 03:38:57;;;;;;;37.45;24.88;;;10.90;99.90;;;;;;5031902;28;20067;-64
2022/05/07 03:41:23;;;;;;;38.70;22.65;;;10.90;99.90;;;;;;5030728;28;20092;-66
2022/05/07 03:43:49;;;;;;;35.33;23.60;;;10.90;99.90;;;;;;5032392;28;20048;-63
2022/05/07 03:46:15;;;;;;;32.63;23.23;;;10.90;99.90;;;;;;5013945;28;20052;-65
2022/05/07 03:48:40;;;;;;;36.03;23.70;;;10.90;99.90;;;;;;5050440;28;20060;-67
2022/05/07 03:51:06;;;;;;;45.45;23.70;;;10.90;99.90;;;;;;5030313;28;20040;-66
2022/05/07 03:53:32;;;;;;;34.65;24.00;;;11.00;99.90;;;;;;5015521;28;20139;-65
2022/05/07 03:56:06;;;;;;;39.08;24.40;;;10.90;99.90;;;;;;5014299;28;20687;-61
2022/05/07 03:58:33;;;;;;;41.50;25.05;;;11.00;99.90;;;;;;5014552;28;20912;-67
2022/05/07 04:00:59;;;;;;;46.08;26.67;;;11.00;99.90;;;;;;5013395;28;20057;-64
2022/05/07 04:03:27;;;;;;;39.60;26.08;;;11.10;99.90;;;;;;5043424;28;20128;-65
2022/05/07 04:05:53;;;;;;;43.28;27.45;;;11.10;99.90;;;;;;5047460;28;20486;-61
2022/05/07 04:08:19;;;;;;;47.80;28.23;;;11.10;99.90;;;;;;5013555;28;20411;-60
2022/05/07 04:10:45;;;;;;;44.40;26.77;;;11.20;99.90;;;;;;5031657;28;20047;-58
2022/05/07 04:13:12;;;;;;;40.35;26.20;;;11.20;99.90;;;;;;5031149;28;20138;-64
2022/05/07 04:15:39;;;;;;;41.33;27.67;;;11.30;99.90;;;;;;5030572;28;20037;-59
2022/05/07 04:18:06;;;;;;;42.10;27.98;;;11.30;99.90;;;;;;5031243;28;20060;-66
2022/05/07 04:20:32;;;;;;;42.25;28.63;;;11.40;99.90;;;;;;5030096;28;20053;-68
2022/05/07 04:22:58;;;;;;;47.20;29.55;;;11.40;99.90;;;;;;5014022;28;20098;-67
2022/05/07 04:25:24;;;;;;;41.05;27.77;;;11.50;99.90;;;;;;5029592;28;20049;-67
2022/05/07 04:27:50;;;;;;;50.05;28.75;;;11.50;99.90;;;;;;5014582;28;20054;-64
2022/05/07 04:30:16;;;;;;;42.53;27.30;;;11.60;99.90;;;;;;5030049;28;20506;-61
2022/05/07 04:32:42;;;;;;;43.15;27.40;;;11.60;99.90;;;;;;5015275;28;20130;-64
2022/05/07 04:35:08;;;;;;;48.75;28.25;;;11.60;99.90;;;;;;5027640;28;20091;-70
2022/05/07 04:37:34;;;;;;;43.13;28.00;;;11.60;99.90;;;;;;5045418;28;20064;-62
2022/05/07 04:39:59;;;;;;;49.35;28.50;;;11.60;99.90;;;;;;5031371;28;20043;-58
2022/05/07 04:42:25;;;;;;;49.15;29.20;;;11.60;99.90;;;;;;4996585;28;20482;-62
2022/05/07 04:44:52;;;;;;;47.97;28.77;;;11.60;99.90;;;;;;5014818;28;20052;-64
2022/05/07 04:47:18;;;;;;;50.65;28.67;;;11.70;99.90;;;;;;5013384;28;20095;-65
2022/05/07 04:49:44;;;;;;;49.53;28.70;;;11.70;99.90;;;;;;5014235;28;20053;-64
2022/05/07 04:52:11;;;;;;;46.67;28.23;;;11.70;99.90;;;;;;5030129;28;20045;-70
2022/05/07 04:54:38;;;;;;;42.38;26.75;;;11.80;99.90;;;;;;5030043;28;20056;-66
2022/05/07 04:57:04;;;;;;;45.80;29.00;;;11.80;99.90;;;;;;5031103;28;20051;-58
2022/05/07 04:59:30;;;;;;;43.50;28.85;;;11.80;99.90;;;;;;5029097;28;20052;-59
2022/05/07 05:01:56;;;;;;;49.97;28.77;;;11.90;99.90;;;;;;5020841;28;20140;-70
2022/05/07 05:04:22;;;;;;;54.20;30.08;;;11.90;99.90;;;;;;5018302;28;20467;-62
2022/05/07 05:06:47;;;;;;;49.10;30.73;;;12.00;99.90;;;;;;5030804;28;20055;-68
2022/05/07 05:09:13;;;;;;;52.22;30.40;;;12.00;99.90;;;;;;5029269;28;20372;-63
2022/05/07 05:11:39;;;;;;;54.20;31.50;;;12.00;99.90;;;;;;5030279;28;20055;-64
2022/05/07 05:15:01;;;;;;;48.47;30.13;;;12.10;99.90;;;;;;5030727;28;20048;-58
2022/05/07 05:16:53;;;;;;;52.05;32.17;;;12.10;99.90;;;;;;5029115;28;20045;-59
2022/05/07 05:19:19;;;;;;;51.13;30.85;;;12.20;99.90;;;;;;5029689;28;20037;-59
2022/05/07 05:21:45;;;;;;;51.53;32.30;;;12.30;99.90;;;;;;5006354;28;20042;-62
2022/05/07 05:24:12;;;;;;;52.45;30.23;;;12.30;99.90;;;;;;5007479;28;20133;-61
2022/05/07 05:26:37;;;;;;;52.55;32.00;;;12.40;99.90;;;;;;5006096;28;20054;-58
2022/05/07 05:29:03;;;;;;;54.10;33.30;;;12.50;99.90;;;;;;5037686;28;20156;-60
2022/05/07 05:31:30;;;;;;;63.45;33.75;;;12.60;99.90;;;;;;5023512;28;20041;-58
2022/05/07 05:33:57;;;;;;;57.30;34.00;;;12.70;99.90;;;;;;5041936;28;20053;-63
2022/05/07 05:36:24;;;;;;;58.97;32.65;;;12.70;99.90;;;;;;5026570;28;20125;-64
2022/05/07 05:38:53;;;;;;;55.42;33.88;;;12.80;99.90;;;;;;5028929;28;20055;-59
2022/05/07 05:41:20;;;;;;;66.25;36.20;;;12.90;99.90;;;;;;5029533;28;20045;-66
2022/05/07 05:43:46;;;;;;;64.18;34.13;;;12.90;99.90;;;;;;5029080;28;20084;-58
2022/05/07 05:46:14;;;;;;;62.92;35.83;;;13.00;99.90;;;;;;4981394;28;20132;-69
2022/05/07 05:48:39;;;;;;;62.67;34.35;;;13.10;99.90;;;;;;5009555;28;20590;-66
2022/05/07 05:51:05;;;;;;;68.72;35.40;;;13.10;99.90;;;;;;5011915;28;20077;-61
2022/05/07 05:53:33;;;;;;;66.45;34.88;;;13.00;99.90;;;;;;5013095;28;20055;-62
2022/05/07 05:56:00;;;;;;;63.60;34.17;;;13.10;99.90;;;;;;5028652;28;20053;-69
2022/05/07 05:58:33;;;;;;;63.95;32.58;;;13.10;99.90;;;;;;4996685;28;20488;-63
2022/05/07 06:01:03;;;;;;;55.90;32.92;;;13.10;99.90;;;;;;4996209;28;20056;-67
2022/05/07 06:03:30;;;;;;;65.70;34.92;;;13.10;99.90;;;;;;5028961;28;20068;-63
2022/05/07 06:05:56;;;;;;;60.17;34.35;;;13.10;99.90;;;;;;5023123;28;20044;-65
2022/05/07 06:08:22;;;;;;;62.70;36.05;;;13.20;99.90;;;;;;5047910;28;20056;-64
2022/05/07 06:10:52;;;;;;;57.05;33.50;;;13.20;99.90;;;;;;5045713;28;20037;-66
2022/05/07 06:13:18;;;;;;;;;;;13.30;99.90;;;;;;5027990;28;20056;-68
2022/05/07 06:15:45;;;;;;;51.80;32.38;;;13.40;99.90;;;;;;5061759;28;19986;-70
2022/05/07 06:18:11;;;;;;;58.47;31.35;;;13.40;99.90;;;;;;5027472;28;20056;-61
2022/05/07 06:20:37;;;;;;;58.90;32.63;;;13.40;99.90;;;;;;5028260;28;20057;-62
2022/05/07 06:23:02;;;;;;;62.60;34.05;;;13.50;99.90;;;;;;5033828;28;20036;-59
2022/05/07 06:28:13;;;;;;;54.95;32.40;;;13.60;99.90;;;;;;5034404;28;20135;-67
2022/05/07 06:30:39;;;;;;;54.40;33.10;;;13.60;99.90;;;;;;5030508;28;20330;-62
2022/05/07 06:33:05;;;;;;;58.85;33.83;;;13.60;99.90;;;;;;5010217;28;20038;-61
2022/05/07 06:35:30;;;;;;;54.42;32.33;;;13.70;99.90;;;;;;5024014;28;20533;-62
2022/05/07 06:37:56;;;;;;;50.95;30.42;;;13.80;99.90;;;;;;5009145;28;20123;-66
2022/05/07 06:40:22;;;;;;;51.38;31.63;;;13.80;99.90;;;;;;4992524;28;20042;-61
2022/05/07 06:42:48;;;;;;;58.10;33.83;;;13.90;99.90;;;;;;5009754;28;20045;-65
2022/05/07 06:45:14;;;;;;;51.65;31.10;;;13.90;99.90;;;;;;5038377;28;20052;-63
2022/05/07 06:47:40;;;;;;;43.72;29.52;;;14.00;99.90;;;;;;5027961;28;20681;-66
2022/05/07 06:50:07;;;;;;;49.25;29.58;;;14.00;99.90;;;;;;5030632;28;20124;-69
2022/05/07 06:52:41;;;;;;;49.45;30.25;;;14.10;99.90;;;;;;5037151;28;20572;-59
2022/05/07 06:55:07;;;;;;;41.17;28.35;;;14.00;99.90;;;;;;5028735;28;20089;-67
2022/05/07 06:57:33;;;;;;;54.47;31.02;;;14.00;99.90;;;;;;5045313;28;20570;-64
2022/05/07 06:59:59;;;;;;;50.70;32.70;;;14.10;99.90;;;;;;5047737;28;20131;-63
2022/05/07 07:02:25;;;;;;;52.15;30.98;;;14.20;99.90;;;;;;5027928;28;20442;-65
2022/05/07 07:04:51;;;;;;;52.58;31.05;;;14.30;99.90;;;;;;5027562;28;20056;-65
2022/05/07 07:07:24;;;;;;;62.08;33.35;;;14.40;99.90;;;;;;5028211;28;20064;-66
2022/05/07 07:09:50;;;;;;;57.15;32.63;;;14.40;99.90;;;;;;4995742;28;20045;-59
2022/05/07 07:12:16;;;;;;;58.05;35.28;;;14.70;99.90;;;;;;5028992;28;20113;-68
2022/05/07 07:14:42;;;;;;;57.05;32.70;;;14.90;99.90;;;;;;5045862;28;20509;-59
2022/05/07 07:17:08;;;;;;;55.35;34.05;;;14.80;99.90;;;;;;5015276;28;20135;-62
2022/05/07 07:19:34;;;;;;;52.97;34.38;;;14.90;99.90;;;;;;5030704;28;20082;-63
2022/05/07 07:22:00;;;;;;;60.42;33.90;;;15.00;99.90;;;;;;5042475;28;20122;-67
2022/05/07 07:24:26;;;;;;;65.80;35.83;;;15.10;99.90;;;;;;5022064;28;20128;-68
2022/05/07 07:26:52;;;;;;;57.47;33.35;;;15.20;99.90;;;;;;5013493;28;20135;-67
2022/05/07 07:29:18;;;;;;;64.35;33.42;;;15.20;99.90;;;;;;5032064;28;20049;-62
2022/05/07 07:31:43;;;;;;;60.13;35.13;;;15.10;99.90;;;;;;5019281;28;20645;-61
2022/05/07 07:34:09;;;;;;;54.58;34.15;;;15.10;99.90;;;;;;5028457;28;20060;-66
2022/05/07 07:36:35;;;;;;;66.43;34.30;;;15.10;99.90;;;;;;4992967;28;20052;-59
2022/05/07 07:39:06;;;;;;;58.97;34.72;;;15.10;99.90;;;;;;5027917;28;20119;-68
2022/05/07 07:41:33;;;;;;;48.30;30.25;;;15.20;99.90;;;;;;4996385;28;20510;-69
2022/05/07 07:43:59;;;;;;;55.63;32.05;;;15.30;99.90;;;;;;5028948;28;20067;-65
2022/05/07 07:49:09;;;;;;;53.85;32.55;;;15.30;99.90;;;;;;5024711;28;20041;-68
2022/05/07 07:51:36;;;;;;;55.35;31.70;;;15.20;99.90;;;;;;5030160;28;20043;-63
2022/05/07 07:54:02;;;;;;;55.22;32.38;;;15.20;99.90;;;;;;5045181;28;20434;-60
2022/05/07 07:56:28;;;;;;;50.08;31.42;;;15.10;99.90;;;;;;5012574;28;20045;-69
2022/05/07 07:58:53;;;;;;;57.50;33.95;;;15.10;99.90;;;;;;5031543;28;20056;-69
2022/05/07 08:01:19;;;;;;;52.92;32.97;;;15.20;99.90;;;;;;5021079;28;20092;-60
2022/05/07 08:03:45;;;;;;;59.25;32.55;;;15.20;99.90;;;;;;5034754;28;20044;-64
2022/05/07 08:06:10;;;;;;;60.47;34.53;;;15.20;99.90;;;;;;5014314;28;20044;-61
2022/05/07 08:14:04;;;;;;;60.83;34.58;;;15.00;99.90;;;;;;5026031;28;20136;-68
2022/05/07 08:16:30;;;;;;;60.70;34.45;;;15.00;99.90;;;;;;5031273;28;20144;-65
2022/05/07 08:18:56;;;;;;;59.40;34.05;;;15.10;99.90;;;;;;5029856;28;20064;-62
2022/05/07 08:21:22;;;;;;;59.55;35.58;;;15.30;99.90;;;;;;5030598;28;20053;-63
2022/05/07 08:23:48;;;;;;;56.85;35.13;;;15.30;99.90;;;;;;5029473;28;20122;-67
2022/05/07 08:26:14;;;;;;;61.92;33.42;;;15.40;99.90;;;;;;5015523;28;20562;-65
2022/05/07 08:28:41;;;;;;;50.75;33.05;;;15.50;99.90;;;;;;5025466;28;20095;-69
2022/05/07 08:31:08;;;;;;;53.70;32.95;;;15.40;99.90;;;;;;5011483;28;20041;-70
2022/05/07 08:33:34;;;;;;;53.25;32.03;;;15.40;99.90;;;;;;5011889;28;20037;-66
2022/05/07 08:36:00;;;;;;;52.67;31.20;;;15.30;99.90;;;;;;5012665;28;20060;-69
2022/05/07 08:38:26;;;;;;;59.10;32.33;;;15.20;99.90;;;;;;5013134;28;20041;-60
2022/05/07 08:40:53;;;;;;;55.95;30.92;;;15.10;99.90;;;;;;5025874;28;20061;-67
2022/05/07 08:43:19;;;;;;;48.45;30.05;;;14.90;99.90;;;;;;5019747;28;20092;-67
2022/05/07 08:45:45;;;;;;;51.63;31.67;;;14.90;99.90;;;;;;5048019;28;20115;-67
2022/05/07 08:48:11;;;;;;;49.10;27.75;;;14.90;99.90;;;;;;5049159;28;20041;-65
2022/05/07 08:50:41;;;;;;;40.55;23.10;;;14.80;99.90;;;;;;5041296;28;20071;-61
2022/05/07 08:53:09;;;;;;;38.63;20.25;;;14.80;99.90;;;;;;5048889;28;20098;-67
2022/05/07 08:55:36;;;;;;;29.05;17.90;;;14.70;99.90;;;;;;5013860;28;20569;-69
2022/05/07 08:58:02;;;;;;;30.80;17.70;;;14.60;99.90;;;;;;5030177;28;20044;-61
2022/05/07 09:00:29;;;;;;;24.77;16.67;;;14.50;99.90;;;;;;5031065;28;20086;-68
2022/05/07 09:02:59;;;;;;;27.27;16.98;;;14.50;99.90;;;;;;5031891;28;20061;-59
2022/05/07 09:05:33;;;;;;;26.98;17.65;;;14.50;99.90;;;;;;5029810;28;20049;-64
2022/05/07 09:07:59;;;;;;;28.40;18.73;;;14.60;99.90;;;;;;5029540;28;20044;-66
2022/05/07 09:10:27;;;;;;;32.78;20.70;;;14.60;99.90;;;;;;5042122;28;20098;-65
2022/05/07 09:12:58;;;;;;;44.72;22.92;;;14.70;99.90;;;;;;5033105;28;20040;-59
2022/05/07 09:15:24;;;;;;;38.15;23.50;;;14.70;99.90;;;;;;5017531;28;20044;-69
2022/05/07 09:17:50;;;;;;;40.63;25.48;;;14.80;99.90;;;;;;5013711;28;20134;-61
2022/05/07 09:20:21;;;;;;;45.88;27.67;;;14.80;99.90;;;;;;5056938;28;20037;-66
2022/05/07 09:22:53;;;;;;;57.38;32.15;;;14.90;99.90;;;;;;5012677;28;20083;-60
2022/05/07 09:25:23;;;;;;;51.97;30.75;;;14.90;99.90;;;;;;5029292;28;20116;-62
2022/05/07 09:27:57;;;;;;;50.35;32.15;;;15.00;99.90;;;;;;5027547;28;20098;-69
2022/05/07 09:30:30;;;;;;;49.28;30.30;;;14.90;99.90;;;;;;5017981;28;20449;-64
2022/05/07 09:32:57;;;;;;;42.33;26.45;;;15.00;99.90;;;;;;5027115;28;20519;-64
2022/05/07 09:35:47;;;;;;;45.13;26.13;;;15.10;99.90;;;;;;5028684;28;20566;-59
2022/05/07 09:38:15;;;;;;;46.40;28.48;;;15.20;99.90;;;;;;5001672;28;20055;-66
2022/05/07 09:40:43;;;;;;;45.50;27.95;;;15.30;99.90;;;;;;5016161;28;20032;-62
2022/05/07 09:43:10;;;;;;;41.78;26.20;;;15.50;99.90;;;;;;5034692;28;20563;-63
2022/05/07 09:45:38;;;;;;;45.13;29.27;;;15.50;99.90;;;;;;5027056;28;20048;-67
2022/05/07 09:48:08;;;;;;;45.30;30.13;;;15.80;99.90;;;;;;5031198;28;20127;-67
2022/05/07 09:58:41;;;;;;;57.25;32.05;;;16.60;99.90;;;;;;5026907;28;20045;-66
2022/05/07 10:01:40;;;;;;;44.90;27.95;;;16.60;99.90;;;;;;5030727;28;20136;-64
2022/05/07 10:04:30;;;;;;;45.13;29.38;;;16.80;99.90;;;;;;5039353;28;20041;-66
2022/05/07 10:07:20;;;;;;;53.08;31.25;;;17.10;99.90;;;;;;5029356;28;20048;-59
2022/05/07 10:10:02;;;;;;;53.85;32.35;;;17.30;99.90;;;;;;5027878;28;20132;-61
2022/05/07 10:12:31;;;;;;;56.72;33.55;;;17.40;99.90;;;;;;5051404;28;20047;-69
2022/05/07 10:15:12;;;;;;;52.33;33.58;;;17.30;99.90;;;;;;5035385;28;20475;-60
2022/05/07 10:17:38;;;;;;;53.42;31.85;;;17.20;99.90;;;;;;5014191;28;20044;-64
2022/05/07 10:20:09;;;;;;;47.38;30.58;;;17.00;99.90;;;;;;5028001;28;20151;-65
2022/05/07 10:22:36;;;;;;;48.75;30.65;;;16.90;99.90;;;;;;5029803;28;20131;-61
2022/05/07 10:25:09;;;;;;;41.97;29.10;;;16.60;99.90;;;;;;5047384;28;20045;-60
2022/05/07 10:27:36;;;;;;;48.45;29.10;;;16.60;99.90;;;;;;5044691;28;20037;-60
2022/05/07 10:30:08;;;;;;;45.63;26.85;;;16.60;99.90;;;;;;5025114;28;20055;-66
2022/05/07 10:32:58;;;;;;;39.03;24.73;;;16.60;99.90;;;;;;5010089;28;20081;-68
2022/05/07 10:35:42;;;;;;;31.40;22.10;;;16.70;99.90;;;;;;5046541;28;20182;-64
2022/05/07 10:38:13;;;;;;;31.40;20.80;;;16.60;99.90;;;;;;5027443;28;20091;-60
2022/05/07 10:40:53;;;;;;;29.35;19.92;;;16.70;99.90;;;;;;5024617;28;20457;-60
2022/05/07 10:43:33;;;;;;;24.45;16.90;;;16.90;99.90;;;;;;5009050;28;20061;-60
2022/05/07 10:46:12;;;;;;;25.38;16.85;;;17.00;99.90;;;;;;5024175;28;20123;-63
2022/05/07 10:49:01;;;;;;;27.65;15.57;;;17.10;99.90;;;;;;5048143;28;20513;-68
2022/05/07 10:51:33;;;;;;;19.97;13.73;;;17.50;99.90;;;;;;5045460;28;20065;-65
2022/05/07 10:54:03;;;;;;;19.75;12.85;;;17.70;99.90;;;;;;5022922;28;20303;-59
2022/05/07 10:56:30;;;;;;;24.95;13.07;;;18.00;99.90;;;;;;5043908;28;20506;-65
2022/05/07 10:58:57;;;;;;;19.08;10.70;;;18.10;96.90;;;;;;5025966;28;20059;-67
2022/05/07 11:01:26;;;;;;;18.42;11.38;;;18.20;91.40;;;;;;5026875;28;20107;-60
2022/05/07 11:04:04;;;;;;;23.57;14.53;;;18.10;97.40;;;;;;5026065;28;20049;-68
2022/05/07 11:06:44;;;;;;;18.08;11.73;;;18.10;98.40;;;;;;5030137;28;20052;-65
2022/05/07 11:09:22;;;;;;;18.90;11.20;;;18.10;98.90;;;;;;5045395;28;20487;-64
2022/05/07 11:11:52;;;;;;;19.77;13.07;;;18.00;95.20;;;;;;5042437;28;20053;-70
2022/05/07 11:14:30;;;;;;;21.30;12.82;;;17.80;99.40;;;;;;5044691;28;20049;-62
2022/05/07 11:16:58;;;;;;;20.00;11.93;;;17.50;96.60;;;;;;5028004;28;20053;-66
2022/05/07 11:19:27;;;;;;;13.90;9.38;;;17.10;98.30;;;;;;5044895;28;20053;-60
2022/05/07 11:21:55;;;;;;;18.20;10.55;;;16.90;99.90;;;;;;5045213;28;20056;-64
2022/05/07 11:24:21;;;;;;;17.67;10.45;;;17.00;99.90;;;;;;5026709;28;20057;-64
2022/05/07 11:26:52;;;;;;;14.68;9.20;;;17.00;99.90;;;;;;5030581;28;20052;-66
2022/05/07 11:29:18;;;;;;;14.88;9.60;;;17.00;99.90;;;;;;5027192;28;20179;-67
2022/05/07 11:31:54;;;;;;;13.98;9.15;;;17.10;99.90;;;;;;5029211;28;20037;-69
2022/05/07 11:34:37;;;;;;;18.02;10.40;;;17.30;99.90;;;;;;5031862;28;20558;-58
2022/05/07 11:37:18;;;;;;;14.32;10.05;;;17.40;99.30;;;;;;5031938;28;20048;-61
2022/05/07 11:39:54;;;;;;;13.43;9.45;;;17.30;96.40;;;;;;5012499;28;20053;-66
2022/05/07 11:42:39;;;;;;;14.80;9.23;;;17.30;99.30;;;;;;5011832;28;20068;-68
2022/05/07 11:45:31;;;;;;;13.43;8.10;;;17.20;99.90;;;;;;5031780;28;20076;-66
2022/05/07 11:48:07;;;;;;;12.32;8.65;;;17.10;99.90;;;;;;5032576;28;20633;-60
2022/05/07 11:50:41;;;;;;;14.50;9.40;;;16.90;99.90;;;;;;5030755;28;20521;-63
2022/05/07 11:53:11;;;;;;;13.45;8.93;;;17.00;99.90;;;;;;5031894;28;20080;-64
2022/05/07 11:55:37;;;;;;;19.23;11.75;;;16.60;99.90;;;;;;5011304;28;20059;-66
2022/05/07 11:58:12;;;;;;;24.77;11.13;;;16.30;99.90;;;;;;5025492;28;20068;-69
2022/05/07 12:00:42;;;;;;;21.80;11.43;;;16.10;99.90;;;;;;5015374;28;20053;-62
2022/05/07 12:03:09;;;;;;;17.85;12.23;;;16.10;99.90;;;;;;5029458;28;20103;-65
2022/05/07 12:05:55;;;;;;;18.55;11.25;;;16.00;99.90;;;;;;5032337;28;20070;-65
2022/05/07 12:08:23;;;;;;;19.70;12.52;;;15.90;99.90;;;;;;5031755;28;20499;-62
2022/05/07 12:10:51;;;;;;;17.48;12.48;;;15.90;99.90;;;;;;5051408;28;20482;-61
2022/05/07 12:13:18;;;;;;;20.42;12.02;;;15.90;99.90;;;;;;5050674;28;20048;-66
2022/05/07 12:18:30;;;;;;;21.58;12.98;;;15.70;99.90;;;;;;5067985;28;20048;-61
2022/05/07 12:20:57;;;;;;;16.88;13.18;;;15.70;99.90;;;;;;5037095;28;20052;-64
2022/05/07 12:31:35;;;;;;;21.38;12.77;;;15.80;99.90;;;;;;5032114;28;20254;-58
2022/05/07 12:34:02;;;;;;;17.77;11.65;;;16.10;99.90;;;;;;5037001;28;20487;-59
2022/05/07 12:36:28;;;;;;;16.63;11.30;;;16.10;99.90;;;;;;5051113;28;20538;-61
2022/05/07 12:38:54;;;;;;;21.52;13.80;;;16.20;99.90;;;;;;5050504;28;20104;-58
2022/05/07 12:41:20;;;;;;;30.75;14.50;;;16.20;99.90;;;;;;5036486;28;20084;-66
2022/05/07 12:43:46;;;;;;;21.60;12.70;;;16.30;99.90;;;;;;5014912;28;20128;-64
2022/05/07 12:46:12;;;;;;;22.10;14.30;;;16.30;99.90;;;;;;5036993;28;20143;-66
2022/05/07 12:48:38;;;;;;;19.10;14.43;;;16.00;99.90;;;;;;5049326;28;20044;-62
2022/05/07 12:51:04;;;;;;;22.02;13.77;;;16.00;99.90;;;;;;5045012;28;20049;-62
2022/05/07 12:53:29;;;;;;;18.05;12.63;;;16.10;99.90;;;;;;5019756;28;20106;-64
2022/05/07 12:55:55;;;;;;;16.17;11.88;;;16.20;99.90;;;;;;5065519;28;20059;-66
2022/05/07 12:58:21;;;;;;;13.77;11.13;;;16.20;99.90;;;;;;5048405;28;20571;-65
2022/05/07 13:00:47;;;;;;;16.20;11.48;;;16.20;99.90;;;;;;5042895;28;20044;-62
2022/05/07 13:03:12;;;;;;;18.40;11.55;;;16.20;99.90;;;;;;5045693;28;20111;-70
2022/05/07 13:05:38;;;;;;;13.57;9.90;;;16.30;99.90;;;;;;5031347;28;20052;-63
2022/05/07 13:08:05;;;;;;;12.55;9.07;;;16.40;99.90;;;;;;5030024;28;20045;-67